createdAt,value
2022-09-23T00:00:32.925Z,36.60
2022-09-23T00:03:02.717Z,36.75
2022-09-23T00:05:29.786Z,36.59
2022-09-23T00:07:56.536Z,36.48
2022-09-23T00:10:23.281Z,39.58
2022-09-23T00:12:50.089Z,41.65
2022-09-23T00:15:16.891Z,44.44
2022-09-23T00:17:43.811Z,42.27
2022-09-23T00:20:10.702Z,39.77
2022-09-23T00:22:37.520Z,38.29
2022-09-23T00:25:04.288Z,37.89
2022-09-23T00:27:31.034Z,37.14
2022-09-23T00:29:57.814Z,37.27
2022-09-23T00:32:24.726Z,36.94
2022-09-23T00:34:52.384Z,36.82
2022-09-23T00:37:19.209Z,36.52
2022-09-23T00:39:46.496Z,36.52
2022-09-23T00:42:13.251Z,36.23
2022-09-23T00:44:40.038Z,36.09
2022-09-23T00:47:06.787Z,36.39
2022-09-23T00:49:33.529Z,36.42
2022-09-23T00:52:00.310Z,37.07
2022-09-23T00:54:27.412Z,41.33
2022-09-23T00:56:54.156Z,42.86
2022-09-23T00:59:21.602Z,42.88
2022-09-23T01:01:49.516Z,39.83
2022-09-23T01:04:16.345Z,37.91
2022-09-23T01:06:43.106Z,37.91
2022-09-23T01:09:09.859Z,37.39
2022-09-23T01:11:37.302Z,37.14
2022-09-23T01:14:04.066Z,36.92
2022-09-23T01:16:30.886Z,36.60
2022-09-23T01:18:57.657Z,36.60
2022-09-23T01:21:24.440Z,36.55
2022-09-23T01:23:52.669Z,36.50
2022-09-23T01:26:20.173Z,36.41
2022-09-23T01:28:46.958Z,36.70
2022-09-23T01:31:13.789Z,37.58
2022-09-23T01:33:40.615Z,40.83
2022-09-23T01:36:07.403Z,41.31
2022-09-23T01:38:34.234Z,43.27
2022-09-23T01:41:01.054Z,39.97
2022-09-23T01:43:28.185Z,38.56
2022-09-23T01:45:56.407Z,37.65
2022-09-23T01:48:23.215Z,37.14
2022-09-23T01:50:56.267Z,36.94
2022-09-23T01:53:23.008Z,36.68
2022-09-23T01:55:50.011Z,36.78
2022-09-23T01:58:16.877Z,36.56
2022-09-23T02:00:43.694Z,36.58
2022-09-23T02:03:12.576Z,36.64
2022-09-23T02:05:39.349Z,36.47
2022-09-23T02:08:06.114Z,36.18
2022-09-23T02:10:32.938Z,36.02
2022-09-23T02:12:59.926Z,38.02
2022-09-23T02:15:26.688Z,41.11
2022-09-23T02:17:53.449Z,43.56
2022-09-23T02:20:20.903Z,41.58
2022-09-23T02:22:47.649Z,39.39
2022-09-23T02:25:17.083Z,38.24
2022-09-23T02:27:43.853Z,37.51
2022-09-23T02:30:10.605Z,36.87
2022-09-23T02:32:37.361Z,37.14
2022-09-23T02:35:04.197Z,36.55
2022-09-23T02:37:31.241Z,36.69
2022-09-23T02:39:58.031Z,36.37
2022-09-23T02:42:24.823Z,36.43
2022-09-23T02:44:51.577Z,36.30
2022-09-23T02:47:18.365Z,36.03
2022-09-23T02:49:45.152Z,35.96
2022-09-23T02:52:13.577Z,35.85
2022-09-23T02:54:40.481Z,39.27
2022-09-23T02:57:07.249Z,41.72
2022-09-23T02:59:34.125Z,44.78
2022-09-23T03:02:00.987Z,40.75
2022-09-23T03:04:31.433Z,39.27
2022-09-23T03:06:58.937Z,37.98
2022-09-23T03:09:25.694Z,37.36
2022-09-23T03:11:52.463Z,37.29
2022-09-23T03:14:19.714Z,36.79
2022-09-23T03:16:47.635Z,36.60
2022-09-23T03:19:14.885Z,36.53
2022-09-23T03:21:41.658Z,36.25
2022-09-23T03:24:08.410Z,36.07
2022-09-23T03:26:35.605Z,36.24
2022-09-23T03:29:02.451Z,36.15
2022-09-23T03:31:29.864Z,36.07
2022-09-23T03:33:56.658Z,40.47
2022-09-23T03:36:46.520Z,41.36
2022-09-23T03:39:13.617Z,43.19
2022-09-23T03:41:40.431Z,39.78
2022-09-23T03:44:07.368Z,38.19
2022-09-23T03:46:35.415Z,37.61
2022-09-23T03:49:02.156Z,37.13
2022-09-23T03:51:28.900Z,37.06
2022-09-23T03:53:55.662Z,37.00
2022-09-23T03:56:22.470Z,36.27
2022-09-23T03:58:49.241Z,36.10
2022-09-23T04:01:16.116Z,36.54
2022-09-23T04:03:43.334Z,36.34
2022-09-23T04:06:10.090Z,36.34
2022-09-23T04:08:36.853Z,36.33
2022-09-23T04:11:04.600Z,35.97
2022-09-23T04:13:31.745Z,35.98
2022-09-23T04:15:58.618Z,38.80
2022-09-23T04:18:25.402Z,41.09
2022-09-23T04:20:52.172Z,44.32
2022-09-23T04:23:19.013Z,40.74
2022-09-23T04:25:45.751Z,38.94
2022-09-23T04:28:12.539Z,38.04
2022-09-23T04:30:41.389Z,37.39
2022-09-23T04:33:08.192Z,36.83
2022-09-23T04:35:39.441Z,36.65
2022-09-23T04:38:07.097Z,36.56
2022-09-23T04:40:34.239Z,36.17
2022-09-23T04:43:01.089Z,36.33
2022-09-23T04:45:27.850Z,35.99
2022-09-23T04:47:55.838Z,35.84
2022-09-23T04:50:22.610Z,36.04
2022-09-23T04:52:49.384Z,36.03
2022-09-23T04:55:16.138Z,36.55
2022-09-23T04:57:43.248Z,40.29
2022-09-23T05:00:12.207Z,41.00
2022-09-23T05:02:39.400Z,42.33
2022-09-23T05:05:06.232Z,39.26
2022-09-23T05:07:33.301Z,38.13
2022-09-23T05:10:00.049Z,37.56
2022-09-23T05:12:26.790Z,37.08
2022-09-23T05:14:53.550Z,36.51
2022-09-23T05:17:20.840Z,36.42
2022-09-23T05:19:47.672Z,36.50
2022-09-23T05:22:14.453Z,36.36
2022-09-23T05:24:41.241Z,36.28
2022-09-23T05:27:07.980Z,36.05
2022-09-23T05:29:34.889Z,35.83
2022-09-23T05:32:01.671Z,35.75
2022-09-23T05:34:28.511Z,35.74
2022-09-23T05:36:55.389Z,35.97
2022-09-23T05:39:22.149Z,40.87
2022-09-23T05:41:48.939Z,42.33
2022-09-23T05:44:15.791Z,41.88
2022-09-23T05:46:42.818Z,39.24
2022-09-23T05:49:10.042Z,37.70
2022-09-23T05:51:36.966Z,36.89
2022-09-23T05:54:04.104Z,36.64
2022-09-23T05:56:31.133Z,36.31
2022-09-23T05:58:57.973Z,36.33
2022-09-23T06:01:25.021Z,35.63
2022-09-23T06:03:51.906Z,36.26
2022-09-23T06:06:18.671Z,35.92
2022-09-23T06:08:45.468Z,35.89
2022-09-23T06:11:12.272Z,35.55
2022-09-23T06:13:39.032Z,36.02
2022-09-23T06:16:05.916Z,35.63
2022-09-23T06:18:32.744Z,36.82
2022-09-23T06:20:59.514Z,41.26
2022-09-23T06:23:26.749Z,42.38
2022-09-23T06:25:54.059Z,41.52
2022-09-23T06:28:20.852Z,38.66
2022-09-23T06:30:48.232Z,37.83
2022-09-23T06:33:15.182Z,36.62
2022-09-23T06:35:49.424Z,36.78
2022-09-23T06:38:19.673Z,36.49
2022-09-23T06:40:47.076Z,36.26
2022-09-23T06:43:14.008Z,36.28
2022-09-23T06:45:40.794Z,35.88
2022-09-23T06:48:08.265Z,36.07
2022-09-23T06:50:35.007Z,35.46
2022-09-23T06:53:02.079Z,35.34
2022-09-23T06:55:28.895Z,35.67
2022-09-23T06:57:55.640Z,35.21
2022-09-23T07:00:22.393Z,37.24
2022-09-23T07:02:49.423Z,42.02
2022-09-23T07:05:17.186Z,42.55
2022-09-23T07:07:43.974Z,39.06
2022-09-23T07:10:11.087Z,37.31
2022-09-23T07:12:37.844Z,36.42
2022-09-23T07:15:04.583Z,36.30
2022-09-23T07:17:31.422Z,35.98
2022-09-23T07:19:58.417Z,36.05
2022-09-23T07:22:25.650Z,35.79
2022-09-23T07:24:55.924Z,35.34
2022-09-23T07:27:22.673Z,35.58
2022-09-23T07:29:49.482Z,35.50
2022-09-23T07:32:16.640Z,35.77
2022-09-23T07:34:44.317Z,40.08
2022-09-23T07:37:11.065Z,40.02
2022-09-23T07:39:39.598Z,42.14
2022-09-23T07:42:06.341Z,39.30
2022-09-23T07:44:33.088Z,37.99
2022-09-23T07:46:59.860Z,37.39
2022-09-23T07:49:26.604Z,36.93
2022-09-23T07:51:53.362Z,36.14
2022-09-23T07:54:20.175Z,36.10
2022-09-23T07:56:46.969Z,35.85
2022-09-23T07:59:15.261Z,36.03
2022-09-23T08:01:42.128Z,36.09
2022-09-23T08:04:08.936Z,35.91
2022-09-23T08:06:36.683Z,35.80
2022-09-23T08:09:03.535Z,35.34
2022-09-23T08:11:31.172Z,35.55
2022-09-23T08:13:57.918Z,35.83
2022-09-23T08:16:24.787Z,40.45
2022-09-23T08:18:51.675Z,43.08
2022-09-23T08:21:18.495Z,41.08
2022-09-23T08:23:46.114Z,38.32
2022-09-23T08:26:20.086Z,37.41
2022-09-23T08:28:48.705Z,36.82
2022-09-23T08:31:15.579Z,36.29
2022-09-23T08:33:42.738Z,36.06
2022-09-23T08:36:09.511Z,36.13
2022-09-23T08:38:36.259Z,36.11
2022-09-23T08:41:02.995Z,35.92
2022-09-23T08:43:29.753Z,36.03
2022-09-23T08:45:56.526Z,35.49
2022-09-23T08:48:23.318Z,35.30
2022-09-23T08:50:50.076Z,35.77
2022-09-23T08:53:16.837Z,41.34
2022-09-23T08:55:43.581Z,41.74
2022-09-23T08:58:24.975Z,39.27
2022-09-23T09:00:52.954Z,37.31
2022-09-23T09:03:19.839Z,36.55
2022-09-23T09:05:53.890Z,36.45
2022-09-23T09:08:24.042Z,36.13
2022-09-23T09:10:50.854Z,35.61
2022-09-23T09:13:18.249Z,35.42
2022-09-23T09:15:45.077Z,35.30
2022-09-23T09:18:12.124Z,35.71
2022-09-23T09:20:38.971Z,41.80
2022-09-23T09:23:05.752Z,42.24
2022-09-23T09:25:34.282Z,39.33
2022-09-23T09:28:01.294Z,37.52
2022-09-23T09:30:28.071Z,37.00
2022-09-23T09:32:54.950Z,36.44
2022-09-23T09:35:21.702Z,35.69
2022-09-23T09:37:48.632Z,36.08
2022-09-23T09:40:16.930Z,36.14
2022-09-23T09:42:43.779Z,35.46
2022-09-23T09:45:10.965Z,35.60
2022-09-23T09:47:37.728Z,35.13
2022-09-23T09:50:04.473Z,39.11
2022-09-23T09:52:31.729Z,42.23
2022-09-23T09:54:59.377Z,41.48
2022-09-23T09:57:32.093Z,38.03
2022-09-23T10:00:02.597Z,36.94
2022-09-23T10:02:29.368Z,36.27
2022-09-23T10:04:56.133Z,36.38
2022-09-23T10:07:22.898Z,35.71
2022-09-23T10:09:49.933Z,35.91
2022-09-23T10:12:18.234Z,35.63
2022-09-23T10:14:45.011Z,35.55
2022-09-23T10:17:11.766Z,35.81
2022-09-23T10:19:38.517Z,39.96
2022-09-23T10:22:05.326Z,41.11
2022-09-23T10:24:32.154Z,40.47
2022-09-23T10:26:59.005Z,37.51
2022-09-23T10:29:25.864Z,36.80
2022-09-23T10:31:53.686Z,36.51
2022-09-23T10:34:20.682Z,36.14
2022-09-23T10:36:47.713Z,36.03
2022-09-23T10:39:33.141Z,35.69
2022-09-23T10:42:25.999Z,35.82
2022-09-23T10:45:11.238Z,35.48
2022-09-23T10:47:38.039Z,39.04
2022-09-23T10:50:04.888Z,42.73
2022-09-23T10:52:31.958Z,41.73
2022-09-23T10:54:58.723Z,38.03
2022-09-23T10:57:37.986Z,37.43
2022-09-23T11:00:04.776Z,36.41
2022-09-23T11:02:31.518Z,36.48
2022-09-23T11:04:58.277Z,36.12
2022-09-23T11:07:25.072Z,36.01
2022-09-23T11:09:51.812Z,35.55
2022-09-23T11:12:18.550Z,35.70
2022-09-23T11:14:45.378Z,35.78
2022-09-23T11:17:14.606Z,39.68
2022-09-23T11:19:45.470Z,42.35
2022-09-23T11:22:15.823Z,41.15
2022-09-23T11:24:45.089Z,38.07
2022-09-23T11:27:11.849Z,36.68
2022-09-23T11:29:42.442Z,36.34
2022-09-23T11:32:09.192Z,36.04
2022-09-23T11:34:35.948Z,35.83
2022-09-23T11:37:03.441Z,35.99
2022-09-23T11:39:30.192Z,35.86
2022-09-23T11:41:56.951Z,35.98
2022-09-23T11:44:23.994Z,39.15
2022-09-23T11:46:50.841Z,42.40
2022-09-23T11:49:17.643Z,41.79
2022-09-23T11:51:44.482Z,37.91
2022-09-23T11:54:11.229Z,36.93
2022-09-23T11:56:40.854Z,36.62
2022-09-23T11:59:09.348Z,35.99
2022-09-23T12:01:38.227Z,36.02
2022-09-23T12:04:16.296Z,36.05
2022-09-23T12:06:44.998Z,35.91
2022-09-23T12:09:11.779Z,35.70
2022-09-23T12:11:38.583Z,35.70
2022-09-23T12:14:05.345Z,39.61
2022-09-23T12:16:32.196Z,42.63
2022-09-23T12:18:59.077Z,41.33
2022-09-23T12:21:46.212Z,37.90
2022-09-23T12:24:18.973Z,36.68
2022-09-23T12:26:46.497Z,36.50
2022-09-23T12:29:13.308Z,36.41
2022-09-23T12:31:42.031Z,36.40
2022-09-23T12:34:10.913Z,35.99
2022-09-23T12:36:38.269Z,36.10
2022-09-23T12:39:05.073Z,35.85
2022-09-23T12:41:36.938Z,39.48
2022-09-23T12:44:03.681Z,42.22
2022-09-23T12:46:30.458Z,41.12
2022-09-23T12:48:57.763Z,37.77
2022-09-23T12:51:24.536Z,37.10
2022-09-23T12:53:52.023Z,36.80
2022-09-23T12:56:18.787Z,36.45
2022-09-23T12:58:45.538Z,35.85
2022-09-23T13:01:12.359Z,36.04
2022-09-23T13:03:57.845Z,36.18
2022-09-23T13:06:39.578Z,35.77
2022-09-23T13:09:06.337Z,40.82
2022-09-23T13:11:33.111Z,42.29
2022-09-23T13:14:00.507Z,40.58
2022-09-23T13:16:27.335Z,37.81
2022-09-23T13:18:54.506Z,36.79
2022-09-23T13:21:21.277Z,36.42
2022-09-23T13:23:48.042Z,36.37
2022-09-23T13:26:14.796Z,36.06
2022-09-23T13:28:41.542Z,36.09
2022-09-23T13:31:08.317Z,35.68
2022-09-23T13:33:35.059Z,35.72
2022-09-23T13:36:06.613Z,39.56
2022-09-23T13:38:35.350Z,42.81
2022-09-23T13:41:02.097Z,41.38
2022-09-23T13:43:29.239Z,38.06
2022-09-23T13:45:56.023Z,36.83
2022-09-23T13:48:23.602Z,36.59
2022-09-23T13:50:50.429Z,36.00
2022-09-23T13:53:17.226Z,36.20
2022-09-23T13:55:44.786Z,35.87
2022-09-23T13:58:13.737Z,35.85
2022-09-23T14:00:40.555Z,35.82
2022-09-23T14:03:07.342Z,36.17
2022-09-23T14:05:34.126Z,41.58
2022-09-23T14:08:00.915Z,42.78
2022-09-23T14:10:27.712Z,40.29
2022-09-23T14:12:54.451Z,37.63
2022-09-23T14:15:21.232Z,36.36
2022-09-23T14:17:47.985Z,36.48
2022-09-23T14:20:14.749Z,36.18
2022-09-23T14:22:41.518Z,35.90
2022-09-23T14:25:08.277Z,36.11
2022-09-23T14:27:36.355Z,35.89
2022-09-23T14:30:03.129Z,35.76
2022-09-23T14:32:30.292Z,40.32
2022-09-23T14:34:57.038Z,42.41
2022-09-23T14:37:42.370Z,40.51
2022-09-23T14:40:09.213Z,37.46
2022-09-23T14:42:36.001Z,36.95
2022-09-23T14:45:02.808Z,36.60
2022-09-23T14:47:29.553Z,36.09
2022-09-23T14:50:28.753Z,36.40
2022-09-23T14:52:55.496Z,36.11
2022-09-23T14:55:22.241Z,35.64
2022-09-23T14:57:49.113Z,35.70
2022-09-23T15:00:15.895Z,41.59
2022-09-23T15:02:42.658Z,42.32
2022-09-23T15:05:09.742Z,39.65
2022-09-23T15:07:36.585Z,37.99
2022-09-23T15:10:04.539Z,37.20
2022-09-23T15:12:31.296Z,36.77
2022-09-23T15:14:58.431Z,36.24
2022-09-23T15:17:25.520Z,36.08
2022-09-23T15:19:52.551Z,36.26
2022-09-23T15:22:19.370Z,35.82
2022-09-23T15:24:46.223Z,37.96
2022-09-23T15:27:13.062Z,41.99
2022-09-23T15:29:39.864Z,41.84
2022-09-23T15:32:07.863Z,37.73
2022-09-23T15:34:34.763Z,36.84
2022-09-23T15:37:01.685Z,36.40
2022-09-23T15:39:35.720Z,36.75
2022-09-23T15:42:03.257Z,36.24
2022-09-23T15:44:30.063Z,35.97
2022-09-23T15:46:56.918Z,36.24
2022-09-23T15:49:23.865Z,35.89
2022-09-23T15:51:51.975Z,37.32
2022-09-23T15:54:19.355Z,42.38
2022-09-23T15:56:46.111Z,41.76
2022-09-23T15:59:13.531Z,38.76
2022-09-23T16:01:40.414Z,37.04
2022-09-23T16:04:07.245Z,36.75
2022-09-23T16:06:35.934Z,36.71
2022-09-23T16:09:02.738Z,36.22
2022-09-23T16:11:31.641Z,35.94
2022-09-23T16:13:58.442Z,36.08
2022-09-23T16:16:27.599Z,36.08
2022-09-23T16:18:54.469Z,36.52
2022-09-23T16:21:21.235Z,42.04
2022-09-23T16:23:49.066Z,41.66
2022-09-23T16:26:15.881Z,38.38
2022-09-23T16:28:42.693Z,37.32
2022-09-23T16:31:11.161Z,36.95
2022-09-23T16:33:38.246Z,36.18
2022-09-23T16:36:04.983Z,35.90
2022-09-23T16:38:32.473Z,35.83
2022-09-23T16:41:00.350Z,35.65
2022-09-23T16:43:32.570Z,38.90
2022-09-23T16:45:59.429Z,42.33
2022-09-23T16:48:26.290Z,41.17
2022-09-23T16:50:53.884Z,37.92
2022-09-23T16:53:20.645Z,37.42
2022-09-23T16:55:47.427Z,36.69
2022-09-23T16:58:14.174Z,36.43
2022-09-23T17:01:04.329Z,36.18
2022-09-23T17:03:40.790Z,35.74
2022-09-23T17:06:08.167Z,35.91
2022-09-23T17:08:35.289Z,36.06
2022-09-23T17:11:02.933Z,35.97
2022-09-23T17:13:29.732Z,40.86
2022-09-23T17:15:56.687Z,42.31
2022-09-23T17:18:23.674Z,40.20
2022-09-23T17:20:50.452Z,37.46
2022-09-23T17:23:17.204Z,36.86
2022-09-23T17:25:43.949Z,36.58
2022-09-23T17:28:10.712Z,36.02
2022-09-23T17:30:39.174Z,36.01
2022-09-23T17:33:06.042Z,35.92
2022-09-23T17:35:32.793Z,35.68
2022-09-23T17:37:59.544Z,35.68
2022-09-23T17:40:26.400Z,36.11
2022-09-23T17:42:53.232Z,42.11
2022-09-23T17:45:19.979Z,42.65
2022-09-23T17:47:54.745Z,38.87
2022-09-23T17:50:24.259Z,37.19
2022-09-23T17:52:51.007Z,36.83
2022-09-23T17:55:18.046Z,36.02
2022-09-23T17:57:44.810Z,36.17
2022-09-23T18:00:11.568Z,35.77
2022-09-23T18:02:38.420Z,36.03
2022-09-23T18:05:05.334Z,36.09
2022-09-23T18:07:32.080Z,35.84
2022-09-23T18:09:58.846Z,40.89
2022-09-23T18:12:25.611Z,42.25
2022-09-23T18:14:52.358Z,40.34
2022-09-23T18:17:19.131Z,37.79
2022-09-23T18:19:49.037Z,36.76
2022-09-23T18:22:15.802Z,36.18
2022-09-23T18:24:42.601Z,36.04
2022-09-23T18:27:09.498Z,35.91
2022-09-23T18:29:36.289Z,35.85
2022-09-23T18:32:03.163Z,35.64
2022-09-23T18:34:30.024Z,35.81
2022-09-23T18:36:57.078Z,35.72
2022-09-23T18:39:23.853Z,37.75
2022-09-23T18:41:50.945Z,42.47
2022-09-23T18:44:18.889Z,42.26
2022-09-23T18:46:45.641Z,38.25
2022-09-23T18:49:31.005Z,36.88
2022-09-23T18:51:57.771Z,36.75
2022-09-23T18:54:24.572Z,35.91
2022-09-23T18:56:52.630Z,35.69
2022-09-23T18:59:20.456Z,35.80
2022-09-23T19:01:47.343Z,35.48
2022-09-23T19:04:14.249Z,35.32
2022-09-23T19:06:41.054Z,37.13
2022-09-23T19:09:07.819Z,42.54
2022-09-23T19:11:36.166Z,42.82
2022-09-23T19:14:03.199Z,38.80
2022-09-23T19:16:32.805Z,37.31
2022-09-23T19:18:59.755Z,36.77
2022-09-23T19:21:26.519Z,36.09
2022-09-23T19:23:53.340Z,35.76
2022-09-23T19:26:20.380Z,35.70
2022-09-23T19:28:47.149Z,35.51
2022-09-23T19:31:14.990Z,35.69
2022-09-23T19:33:41.813Z,35.44
2022-09-23T19:36:09.600Z,35.11
2022-09-23T19:38:36.409Z,37.39
2022-09-23T19:41:03.496Z,41.41
2022-09-23T19:43:30.277Z,43.36
2022-09-23T19:45:57.017Z,39.07
2022-09-23T19:48:23.773Z,38.02
2022-09-23T19:50:50.674Z,36.91
2022-09-23T19:53:17.423Z,36.20
2022-09-23T19:55:44.211Z,36.08
2022-09-23T19:58:10.989Z,35.64
2022-09-23T20:00:37.778Z,35.83
2022-09-23T20:03:04.797Z,35.68
2022-09-23T20:05:31.591Z,35.77
2022-09-23T20:08:01.518Z,35.58
2022-09-23T20:10:28.313Z,36.07
2022-09-23T20:12:55.862Z,40.35
2022-09-23T20:15:23.165Z,43.28
2022-09-23T20:17:51.296Z,40.14
2022-09-23T20:20:18.072Z,37.78
2022-09-23T20:22:45.139Z,37.40
2022-09-23T20:25:14.722Z,36.26
2022-09-23T20:27:41.710Z,36.50
2022-09-23T20:30:08.640Z,35.93
2022-09-23T20:32:36.890Z,35.93
2022-09-23T20:35:03.721Z,35.67
2022-09-23T20:37:33.012Z,35.47
2022-09-23T20:40:00.682Z,35.54
2022-09-23T20:42:27.531Z,35.83
2022-09-23T20:44:54.765Z,36.53
2022-09-23T20:47:21.509Z,39.78
2022-09-23T20:49:48.802Z,42.82
2022-09-23T20:52:16.210Z,40.73
2022-09-23T20:54:42.949Z,38.41
2022-09-23T20:57:09.717Z,37.67
2022-09-23T20:59:36.476Z,36.63
2022-09-23T21:02:03.274Z,36.31
2022-09-23T21:04:30.054Z,36.05
2022-09-23T21:06:58.132Z,35.67
2022-09-23T21:09:24.895Z,35.71
2022-09-23T21:11:51.724Z,35.74
2022-09-23T21:14:20.271Z,35.61
2022-09-23T21:16:48.241Z,35.36
2022-09-23T21:19:15.001Z,35.70
2022-09-23T21:21:41.758Z,36.58
2022-09-23T21:24:36.132Z,39.84
2022-09-23T21:26:55.349Z,40.17
2022-09-23T21:29:22.142Z,41.22
2022-09-23T21:31:49.339Z,39.01
2022-09-23T21:36:43.920Z,37.01
2022-09-23T21:39:10.677Z,36.21
2022-09-23T21:41:37.477Z,36.27
2022-09-23T21:44:04.579Z,36.22
2022-09-23T21:46:33.561Z,35.73
2022-09-23T21:49:02.198Z,35.74
2022-09-23T21:51:28.956Z,36.07
2022-09-23T21:53:56.699Z,35.43
2022-09-23T21:56:23.466Z,35.91
2022-09-23T21:58:50.279Z,40.08
2022-09-23T22:01:17.105Z,39.96
2022-09-23T22:03:44.047Z,42.47
2022-09-23T22:06:10.822Z,39.75
2022-09-23T22:08:37.641Z,38.03
2022-09-23T22:11:04.412Z,36.74
2022-09-23T22:13:31.291Z,36.28
2022-09-23T22:15:58.075Z,36.04
2022-09-23T22:18:24.850Z,36.21
2022-09-23T22:20:51.672Z,36.04
2022-09-23T22:23:18.417Z,35.67
2022-09-23T22:25:45.219Z,35.55
2022-09-23T22:28:44.190Z,35.49
2022-09-23T22:31:29.595Z,35.36
2022-09-23T22:33:56.388Z,35.80
2022-09-23T22:36:23.169Z,35.52
2022-09-23T22:38:52.316Z,39.10
2022-09-23T22:41:22.529Z,40.37
2022-09-23T22:43:49.970Z,42.44
2022-09-23T22:46:22.015Z,40.42
2022-09-23T22:48:50.196Z,38.39
2022-09-23T22:51:16.998Z,37.71
2022-09-23T22:53:43.766Z,36.94
2022-09-23T22:56:10.506Z,36.80
2022-09-23T22:58:37.258Z,36.35
2022-09-23T23:01:04.192Z,36.00
2022-09-23T23:03:32.900Z,35.86
2022-09-23T23:05:59.745Z,35.73
2022-09-23T23:08:27.653Z,35.71
2022-09-23T23:10:54.918Z,35.61
2022-09-23T23:13:21.815Z,35.33
2022-09-23T23:15:48.625Z,35.97
2022-09-23T23:18:15.501Z,40.36
2022-09-23T23:20:42.642Z,40.36
2022-09-23T23:23:09.444Z,42.28
2022-09-23T23:25:36.199Z,39.46
2022-09-23T23:28:05.501Z,37.82
2022-09-23T23:30:32.428Z,37.54
2022-09-23T23:32:59.178Z,36.84
2022-09-23T23:35:25.929Z,36.21
2022-09-23T23:37:52.697Z,36.10
2022-09-23T23:40:22.644Z,35.98
2022-09-23T23:42:49.486Z,36.22
2022-09-23T23:45:16.566Z,35.95
2022-09-23T23:47:43.914Z,35.76
2022-09-23T23:50:10.825Z,35.54
2022-09-23T23:52:37.864Z,35.49
2022-09-23T23:55:04.614Z,35.11
2022-09-23T23:57:31.371Z,37.60
2022-09-23T23:59:58.616Z,40.73
